Flight Track Log - Related Links

Times and Time Zones

All times are in EST time to prevent confusion due to time zone crossing. See the DAL3682 flight status page for this flight to view local times or setup timezone preferences in your user account.

Time Position Orientation Groundspeed Altitude Reporting Facility
EST Latitude Longitude Course Direction KTS MPH feet Rate Location/Type
Sun 06:01:39 PM 42.2339 -83.3317 39° Northeast 159 183 1,400  Level Cleveland Center
Sun 06:02:27 PM 42.2636 -83.2992 39° Northeast 193 222 3,400 1,826 Climbing Cleveland Center
Sun 06:03:11 PM 42.2936 -83.2683 37° Northeast 219 252 4,200 1,881 Climbing Cleveland Center
Sun 06:03:34 PM 42.2989 -83.2222 81° East 238 274 5,500 2,361 Climbing Cleveland Center
Sun 06:04:12 PM 42.2853 -83.1836 115° Southeast 235 270 6,600 2,066 Climbing Cleveland Center
Sun 06:04:35 PM 42.2611 -83.1436 129° Southeast 267 307 7,600 2,032 Climbing Cleveland Center
Sun 06:05:14 PM 42.2300 -83.1272 159° South 259 298 8,700 1,663 Climbing Cleveland Center
Sun 06:06:16 PM 42.1572 -83.1211 176° South 267 307 10,400 1,854 Climbing Cleveland Center
Sun 06:07:17 PM 42.0647 -83.1636 199° South 289 333 12,500 1,902 Climbing Cleveland Center
Sun 06:08:19 PM 41.9850 -83.1942 196° South 295 339 14,300 1,839 Climbing Cleveland Center
Sun 06:09:21 PM 41.9003 -83.2239 195° South 299 344 16,300 1,659 Climbing Cleveland Center
Sun 06:10:22 PM 41.8269 -83.2500 195° South 291 335 17,700 1,073 Climbing Cleveland Center
Sun 06:11:24 PM 41.7492 -83.2772 195° South 288 331 18,500 629 Climbing Cleveland Center
Sun 06:12:26 PM 41.6686 -83.3056 195° South 296 341 19,000 927 Climbing Cleveland Center
Sun 06:13:27 PM 41.5864 -83.3347 195° South 305 351 20,400 1,415 Climbing Cleveland Center
Sun 06:14:29 PM 41.5050 -83.3622 194° South 301 346 21,900 1,258 Climbing Cleveland Center
Sun 06:15:31 PM 41.4106 -83.3950 195° South 293 337 23,000 585 Climbing Cleveland Center
Sun 06:16:32 PM 41.3278 -83.4247 195° South 304 350 23,100 634 Climbing Cleveland Center
Sun 06:17:34 PM 41.2458 -83.4531 195° South 306 352 24,300 919 Climbing Cleveland Center
Sun 06:18:36 PM 41.1658 -83.4794 194° South 298 343 25,000 341 Climbing Cleveland Center
Sun 06:19:37 PM 41.0875 -83.5069 195° South 310 357 25,000 439 Level Cleveland Center
Sun 06:20:39 PM 40.9808 -83.5419 194° South 326 375 25,900 968 Climbing Cleveland Center
Sun 06:21:41 PM 40.8950 -83.5711 194° South 322 371 27,000 950 Climbing Cleveland Center
Sun 06:22:20 PM 40.8453 -83.5897 196° South 313 360 27,500 600 Climbing Indianapolis Center
Sun 06:23:21 PM 40.7617 -83.6181 194° South 311 358 28,000 488 Climbing Indianapolis Center
Sun 06:24:23 PM 40.6758 -83.6458 194° South 318 366 28,500 488 Climbing Indianapolis Center
Sun 06:25:24 PM 40.5894 -83.6761 195° South 320 368 29,000 492 Climbing Indianapolis Center
Sun 06:26:25 PM 40.4978 -83.6853 184° South 347 399 29,500 537 Climbing Indianapolis Center
Sun 06:27:27 PM 40.3775 -83.6458 166° South 372 428 30,100 537 Climbing Indianapolis Center
Sun 06:28:28 PM 40.2783 -83.6117 165° South 372 428 30,600 439 Climbing Indianapolis Center
Sun 06:29:30 PM 40.1783 -83.5767 165° South 371 427 31,000 195 Climbing Indianapolis Center
Sun 06:30:31 PM 40.0769 -83.5425 166° South 377 434 31,000  Level Indianapolis Center
Sun 06:31:32 PM 39.9736 -83.5069 165° South 383 441 31,000  Level Indianapolis Center
Sun 06:32:34 PM 39.8661 -83.4692 165° South 381 438 31,000  Level Indianapolis Center
Sun 06:33:35 PM 39.7642 -83.4356 166° South 378 435 31,000  Level Indianapolis Center
Sun 06:34:37 PM 39.6569 -83.3994 165° South 381 438 31,000  Level Indianapolis Center
Sun 06:35:38 PM 39.5547 -83.3650 165° South 380 437 31,000  Level Indianapolis Center
Sun 06:36:39 PM 39.4528 -83.3311 166° South 378 435 31,000  Level Indianapolis Center
Sun 06:37:41 PM 39.3497 -83.2964 165° South 383 441 31,000  Level Indianapolis Center
Sun 06:38:42 PM 39.2467 -83.2617 165° South 381 438 31,000  Level Indianapolis Center
Sun 06:39:43 PM 39.1428 -83.2258 165° South 379 436 31,000  Level Indianapolis Center
Sun 06:40:45 PM 39.0194 -83.1853 166° South 387 445 31,000  Level Indianapolis Center
Sun 06:41:46 PM 38.9186 -83.1508 165° South 386 444 31,000  Level Indianapolis Center
Sun 06:42:47 PM 38.8125 -83.1158 166° South 391 450 31,000  Level Indianapolis Center
Sun 06:43:48 PM 38.7061 -83.0811 166° South 395 455 31,000  Level Indianapolis Center
Sun 06:44:49 PM 38.5967 -83.0439 165° South 397 457 31,000  Level Indianapolis Center
Sun 06:45:51 PM 38.4894 -83.0089 166° South 397 457 31,000  Level Indianapolis Center
Sun 06:46:52 PM 38.3814 -82.9736 166° South 399 459 31,000  Level Indianapolis Center
Sun 06:47:53 PM 38.2553 -82.9319 165° South 401 461 31,000  Level Indianapolis Center
Sun 06:48:54 PM 38.1467 -82.8983 166° South 401 461 31,000  Level Indianapolis Center
Sun 06:49:56 PM 38.0375 -82.8622 165° South 402 463 31,000  Level Indianapolis Center
Sun 06:50:57 PM 37.9286 -82.8283 166° South 402 463 31,000  Level Indianapolis Center
Sun 06:51:58 PM 37.8200 -82.7925 165° South 402 463 31,000  Level Indianapolis Center
Sun 06:52:59 PM 37.7131 -82.7581 166° South 398 458 31,000  Level Indianapolis Center
Sun 06:54:00 PM 37.6053 -82.7242 166° South 398 458 31,000  Level Indianapolis Center
Sun 06:55:02 PM 37.4989 -82.6892 165° South 395 455 31,000  Level Indianapolis Center
Sun 06:56:03 PM 37.3917 -82.6558 166° South 395 455 31,000  Level Indianapolis Center
Sun 06:57:04 PM 37.2842 -82.6208 165° South 396 456 31,000  Level Indianapolis Center
Sun 06:58:05 PM 37.1581 -82.5797 165° South 398 458 31,000 49 Level Indianapolis Center
Sun 06:59:07 PM 37.0489 -82.5458 166° South 399 459 31,100 290 Climbing Indianapolis Center
Sun 07:00:09 PM 36.9406 -82.5108 166° South 398 458 31,600 439 Climbing Indianapolis Center
Sun 07:01:10 PM 36.8339 -82.4781 166° South 393 452 32,000 197 Climbing Indianapolis Center
Sun 07:02:11 PM 36.7269 -82.4456 166° South 393 452 32,000  Level Indianapolis Center
Sun 07:03:12 PM 36.6189 -82.4117 166° South 397 457 32,000  Level Indianapolis Center
Sun 07:04:06 PM 36.5269 -82.3853 167° South 398 458 32,000  Level Atlanta Center
Sun 07:05:06 PM 36.4200 -82.3514 166° South 392 451 32,000  Level Atlanta Center
Sun 07:06:06 PM 36.3111 -82.3175 166° South 397 457 32,000 -450 Level Atlanta Center
Sun 07:07:06 PM 36.2000 -82.2814 165° South 402 463 31,100 -950 Descending Atlanta Center
Sun 07:08:06 PM 36.0892 -82.2503 167° South 402 463 30,100 -600 Descending Atlanta Center
Sun 07:09:06 PM 35.9883 -82.2192 166° South 391 450 29,900 -600 Descending Atlanta Center
Sun 07:10:06 PM 35.8817 -82.1883 167° South 391 450 28,900 -1,000 Descending Atlanta Center
Sun 07:11:06 PM 35.7706 -82.1550 166° South 396 456 27,900 -1,000 Descending Atlanta Center
Sun 07:12:06 PM 35.6636 -82.1192 165° South 401 461 26,900 -1,000 Descending Atlanta Center
Sun 07:13:06 PM 35.5525 -82.0886 167° South 401 461 25,900 -950 Descending Atlanta Center
Sun 07:14:06 PM 35.4436 -82.0531 165° South 401 461 25,000 -450 Descending Atlanta Center
Sun 07:15:06 PM 35.3367 -82.0225 167° South 401 461 25,000  Level Atlanta Center
Sun 07:16:06 PM 35.2317 -81.9894 166° South 395 455 25,000 -300 Level Atlanta Center
Sun 07:17:06 PM 35.1289 -81.9614 167° South 390 449 24,400 -800 Descending Atlanta Center
Sun 07:18:06 PM 35.0325 -81.9283 164° South 377 434 23,400 -1,000 Descending Atlanta Center
Sun 07:19:06 PM 34.9481 -81.8672 149° Southeast 357 411 22,400 -950 Descending Atlanta Center
Sun 07:20:06 PM 34.8675 -81.8083 149° Southeast 347 399 21,500 -1,100 Descending Atlanta Center
Sun 07:21:06 PM 34.7892 -81.7472 147° Southeast 342 394 20,200 -1,550 Descending Atlanta Center
Sun 07:22:06 PM 34.7108 -81.6889 149° Southeast 336 387 18,400 -1,800 Descending Atlanta Center
Sun 07:23:06 PM 34.6344 -81.6153 142° Southeast 324 373 16,600 -1,905 Descending Atlanta Center
Sun 07:25:15 PM 34.4878 -81.4894 145° Southeast 317 365 12,400 -1,746 Descending Jacksonville Center
Sun 07:26:15 PM 34.4164 -81.4453 153° Southeast 300 345 11,100 -1,050 Descending Jacksonville Center
Sun 07:27:15 PM 34.3428 -81.3961 151° Southeast 293 337 10,300 -1,250 Descending Jacksonville Center
Sun 07:28:15 PM 34.2736 -81.3697 163° South 277 319 8,600 -1,850 Descending Jacksonville Center
Sun 07:29:15 PM 34.1964 -81.3611 175° South 266 306 6,600 -1,750 Descending Jacksonville Center
Sun 07:30:15 PM 34.1319 -81.3847 197° South 253 291 5,100 -1,500 Descending Jacksonville Center
Sun 07:31:15 PM 34.0697 -81.4033 194° South 247 284 3,600 -1,200 Descending Jacksonville Center
Sun 07:32:15 PM 34.0111 -81.3894 169° South 242 278 2,700 -650 Descending Jacksonville Center
Sun 07:33:15 PM 33.9872 -81.3197 112° Southeast 187 215 2,300 -250 Descending Jacksonville Center
Sun 07:34:15 PM 33.9719 -81.2625 108° East 177 204 2,200 -100 Descending Jacksonville Center

Login

Don't have an account? Register now (free) for customized features, flight alerts, and more!